sensor_id;sensor_type;location;lat;lon;timestamp;P1;durP1;ratioP1;P2;durP2;ratioP2
34064;SDS011;20339;49.754;20.158;2024-02-28T00:01:26;14.90;;;9.20;;
34064;SDS011;20339;49.754;20.158;2024-02-28T00:04:01;16.40;;;9.40;;
34064;SDS011;20339;49.754;20.158;2024-02-28T00:06:33;11.40;;;8.70;;
34064;SDS011;20339;49.754;20.158;2024-02-28T00:09:05;12.80;;;8.00;;
34064;SDS011;20339;49.754;20.158;2024-02-28T00:11:37;13.70;;;8.60;;
34064;SDS011;20339;49.754;20.158;2024-02-28T00:14:19;13.00;;;8.10;;
34064;SDS011;20339;49.754;20.158;2024-02-28T00:16:55;13.30;;;8.10;;
34064;SDS011;20339;49.754;20.158;2024-02-28T00:19:29;14.00;;;8.60;;
34064;SDS011;20339;49.754;20.158;2024-02-28T00:22:06;14.00;;;8.90;;
34064;SDS011;20339;49.754;20.158;2024-02-28T00:24:39;16.30;;;9.80;;
34064;SDS011;20339;49.754;20.158;2024-02-28T00:27:11;15.30;;;9.90;;
34064;SDS011;20339;49.754;20.158;2024-02-28T00:29:46;15.10;;;9.20;;
34064;SDS011;20339;49.754;20.158;2024-02-28T00:32:22;12.40;;;6.40;;
34064;SDS011;20339;49.754;20.158;2024-02-28T00:34:54;14.70;;;7.90;;
34064;SDS011;20339;49.754;20.158;2024-02-28T00:37:26;8.90;;;5.80;;
34064;SDS011;20339;49.754;20.158;2024-02-28T00:39:58;11.50;;;6.40;;
34064;SDS011;20339;49.754;20.158;2024-02-28T00:42:32;11.80;;;6.70;;
34064;SDS011;20339;49.754;20.158;2024-02-28T00:45:08;10.80;;;7.20;;
34064;SDS011;20339;49.754;20.158;2024-02-28T00:47:42;9.70;;;6.40;;
34064;SDS011;20339;49.754;20.158;2024-02-28T00:50:18;10.20;;;5.80;;
34064;SDS011;20339;49.754;20.158;2024-02-28T00:52:57;7.40;;;5.20;;
34064;SDS011;20339;49.754;20.158;2024-02-28T00:55:32;9.00;;;6.10;;
34064;SDS011;20339;49.754;20.158;2024-02-28T00:58:06;11.70;;;6.80;;
34064;SDS011;20339;49.754;20.158;2024-02-28T01:00:43;10.40;;;7.40;;
34064;SDS011;20339;49.754;20.158;2024-02-28T01:03:19;10.70;;;6.60;;
34064;SDS011;20339;49.754;20.158;2024-02-28T01:05:51;9.40;;;5.90;;
34064;SDS011;20339;49.754;20.158;2024-02-28T01:08:31;11.30;;;6.00;;
34064;SDS011;20339;49.754;20.158;2024-02-28T01:11:05;8.70;;;6.10;;
34064;SDS011;20339;49.754;20.158;2024-02-28T01:13:37;10.90;;;6.20;;
34064;SDS011;20339;49.754;20.158;2024-02-28T01:16:11;10.00;;;6.40;;
34064;SDS011;20339;49.754;20.158;2024-02-28T01:18:41;10.40;;;7.40;;
34064;SDS011;20339;49.754;20.158;2024-02-28T01:21:13;12.50;;;7.30;;
34064;SDS011;20339;49.754;20.158;2024-02-28T01:23:49;12.20;;;7.20;;
34064;SDS011;20339;49.754;20.158;2024-02-28T01:26:25;12.10;;;6.80;;
34064;SDS011;20339;49.754;20.158;2024-02-28T01:28:57;13.50;;;7.80;;
34064;SDS011;20339;49.754;20.158;2024-02-28T01:31:29;13.20;;;8.60;;
34064;SDS011;20339;49.754;20.158;2024-02-28T01:34:03;10.80;;;6.70;;
34064;SDS011;20339;49.754;20.158;2024-02-28T01:36:38;10.70;;;7.10;;
34064;SDS011;20339;49.754;20.158;2024-02-28T01:39:10;10.10;;;6.20;;
34064;SDS011;20339;49.754;20.158;2024-02-28T01:41:49;7.40;;;5.40;;
34064;SDS011;20339;49.754;20.158;2024-02-28T01:44:24;10.20;;;5.40;;
34064;SDS011;20339;49.754;20.158;2024-02-28T01:46:56;10.90;;;5.30;;
34064;SDS011;20339;49.754;20.158;2024-02-28T01:49:27;9.80;;;6.00;;
34064;SDS011;20339;49.754;20.158;2024-02-28T01:52:01;8.00;;;5.30;;
34064;SDS011;20339;49.754;20.158;2024-02-28T01:54:33;9.60;;;5.50;;
34064;SDS011;20339;49.754;20.158;2024-02-28T01:57:05;9.20;;;5.60;;
34064;SDS011;20339;49.754;20.158;2024-02-28T01:59:37;8.60;;;5.00;;
34064;SDS011;20339;49.754;20.158;2024-02-28T02:02:09;11.10;;;6.20;;
34064;SDS011;20339;49.754;20.158;2024-02-28T02:04:42;10.10;;;6.70;;
34064;SDS011;20339;49.754;20.158;2024-02-28T02:07:14;12.00;;;7.60;;
34064;SDS011;20339;49.754;20.158;2024-02-28T02:09:48;13.20;;;7.90;;
34064;SDS011;20339;49.754;20.158;2024-02-28T02:12:27;10.20;;;6.60;;
34064;SDS011;20339;49.754;20.158;2024-02-28T02:15:03;10.60;;;7.10;;
34064;SDS011;20339;49.754;20.158;2024-02-28T02:17:38;13.30;;;7.20;;
34064;SDS011;20339;49.754;20.158;2024-02-28T02:20:11;10.10;;;6.50;;
34064;SDS011;20339;49.754;20.158;2024-02-28T02:22:48;9.00;;;5.40;;
34064;SDS011;20339;49.754;20.158;2024-02-28T02:25:19;9.90;;;5.80;;
34064;SDS011;20339;49.754;20.158;2024-02-28T02:27:53;8.70;;;6.00;;
34064;SDS011;20339;49.754;20.158;2024-02-28T02:30:30;8.80;;;6.50;;
34064;SDS011;20339;49.754;20.158;2024-02-28T02:33:01;11.10;;;6.30;;
34064;SDS011;20339;49.754;20.158;2024-02-28T02:35:37;9.00;;;5.70;;
34064;SDS011;20339;49.754;20.158;2024-02-28T02:38:10;10.00;;;6.70;;
34064;SDS011;20339;49.754;20.158;2024-02-28T02:40:41;10.40;;;7.20;;
34064;SDS011;20339;49.754;20.158;2024-02-28T02:43:14;11.60;;;7.90;;
34064;SDS011;20339;49.754;20.158;2024-02-28T02:45:45;11.10;;;6.40;;
34064;SDS011;20339;49.754;20.158;2024-02-28T02:48:17;11.50;;;6.60;;
34064;SDS011;20339;49.754;20.158;2024-02-28T02:50:48;11.10;;;7.20;;
34064;SDS011;20339;49.754;20.158;2024-02-28T02:53:19;14.50;;;8.70;;
34064;SDS011;20339;49.754;20.158;2024-02-28T02:55:54;11.60;;;7.00;;
34064;SDS011;20339;49.754;20.158;2024-02-28T02:58:28;10.30;;;6.60;;
34064;SDS011;20339;49.754;20.158;2024-02-28T03:00:59;12.00;;;7.40;;
34064;SDS011;20339;49.754;20.158;2024-02-28T03:03:32;10.60;;;6.90;;
34064;SDS011;20339;49.754;20.158;2024-02-28T03:06:06;14.10;;;7.50;;
34064;SDS011;20339;49.754;20.158;2024-02-28T03:08:44;10.00;;;6.60;;
34064;SDS011;20339;49.754;20.158;2024-02-28T03:11:17;11.60;;;7.50;;
34064;SDS011;20339;49.754;20.158;2024-02-28T03:13:53;10.10;;;5.90;;
34064;SDS011;20339;49.754;20.158;2024-02-28T03:16:24;8.80;;;5.80;;
34064;SDS011;20339;49.754;20.158;2024-02-28T03:18:57;11.90;;;6.10;;
34064;SDS011;20339;49.754;20.158;2024-02-28T03:21:31;11.40;;;6.50;;
34064;SDS011;20339;49.754;20.158;2024-02-28T03:24:02;10.40;;;6.70;;
34064;SDS011;20339;49.754;20.158;2024-02-28T03:26:40;9.80;;;5.90;;
34064;SDS011;20339;49.754;20.158;2024-02-28T03:29:17;11.20;;;6.30;;
34064;SDS011;20339;49.754;20.158;2024-02-28T03:31:48;14.60;;;6.60;;
34064;SDS011;20339;49.754;20.158;2024-02-28T03:34:22;9.70;;;6.10;;
34064;SDS011;20339;49.754;20.158;2024-02-28T03:36:54;8.80;;;6.00;;
34064;SDS011;20339;49.754;20.158;2024-02-28T03:39:27;11.80;;;7.20;;
34064;SDS011;20339;49.754;20.158;2024-02-28T03:41:59;16.50;;;8.70;;
34064;SDS011;20339;49.754;20.158;2024-02-28T03:44:31;13.40;;;8.30;;
34064;SDS011;20339;49.754;20.158;2024-02-28T03:47:01;11.50;;;7.70;;
34064;SDS011;20339;49.754;20.158;2024-02-28T03:49:38;11.60;;;6.50;;
34064;SDS011;20339;49.754;20.158;2024-02-28T03:52:09;11.20;;;7.00;;
34064;SDS011;20339;49.754;20.158;2024-02-28T03:54:43;11.90;;;6.80;;
34064;SDS011;20339;49.754;20.158;2024-02-28T03:57:19;12.10;;;7.30;;
34064;SDS011;20339;49.754;20.158;2024-02-28T03:59:51;12.40;;;7.20;;
34064;SDS011;20339;49.754;20.158;2024-02-28T04:02:25;11.90;;;6.20;;
34064;SDS011;20339;49.754;20.158;2024-02-28T04:05:00;8.60;;;4.80;;
34064;SDS011;20339;49.754;20.158;2024-02-28T04:07:39;10.10;;;5.50;;
34064;SDS011;20339;49.754;20.158;2024-02-28T04:10:16;10.50;;;5.00;;
34064;SDS011;20339;49.754;20.158;2024-02-28T04:12:50;21.90;;;8.70;;
34064;SDS011;20339;49.754;20.158;2024-02-28T04:15:24;19.70;;;9.00;;
34064;SDS011;20339;49.754;20.158;2024-02-28T04:17:56;17.90;;;8.60;;
34064;SDS011;20339;49.754;20.158;2024-02-28T04:20:27;16.70;;;8.10;;
34064;SDS011;20339;49.754;20.158;2024-02-28T04:22:58;17.90;;;7.60;;
34064;SDS011;20339;49.754;20.158;2024-02-28T04:25:32;13.60;;;6.20;;
34064;SDS011;20339;49.754;20.158;2024-02-28T04:28:04;11.20;;;6.40;;
34064;SDS011;20339;49.754;20.158;2024-02-28T04:30:38;13.20;;;6.50;;
34064;SDS011;20339;49.754;20.158;2024-02-28T04:33:11;9.60;;;6.10;;
34064;SDS011;20339;49.754;20.158;2024-02-28T04:35:45;9.50;;;5.90;;
34064;SDS011;20339;49.754;20.158;2024-02-28T04:40:55;12.50;;;8.10;;
34064;SDS011;20339;49.754;20.158;2024-02-28T04:43:29;11.20;;;7.10;;
34064;SDS011;20339;49.754;20.158;2024-02-28T04:46:03;11.50;;;6.70;;
34064;SDS011;20339;49.754;20.158;2024-02-28T04:48:34;10.00;;;6.30;;
34064;SDS011;20339;49.754;20.158;2024-02-28T04:51:07;10.80;;;6.60;;
34064;SDS011;20339;49.754;20.158;2024-02-28T04:53:41;12.10;;;7.20;;
34064;SDS011;20339;49.754;20.158;2024-02-28T04:56:12;15.10;;;7.50;;
34064;SDS011;20339;49.754;20.158;2024-02-28T04:58:45;10.40;;;5.50;;
34064;SDS011;20339;49.754;20.158;2024-02-28T05:01:16;14.20;;;6.10;;
34064;SDS011;20339;49.754;20.158;2024-02-28T05:03:47;8.00;;;5.30;;
34064;SDS011;20339;49.754;20.158;2024-02-28T05:06:18;10.70;;;6.90;;
34064;SDS011;20339;49.754;20.158;2024-02-28T05:08:52;9.90;;;6.20;;
34064;SDS011;20339;49.754;20.158;2024-02-28T05:11:23;10.20;;;6.30;;
34064;SDS011;20339;49.754;20.158;2024-02-28T05:13:57;9.80;;;6.40;;
34064;SDS011;20339;49.754;20.158;2024-02-28T05:16:29;11.00;;;6.10;;
34064;SDS011;20339;49.754;20.158;2024-02-28T05:19:01;11.70;;;6.10;;
34064;SDS011;20339;49.754;20.158;2024-02-28T05:21:40;11.30;;;6.80;;
34064;SDS011;20339;49.754;20.158;2024-02-28T05:24:14;9.10;;;6.30;;
34064;SDS011;20339;49.754;20.158;2024-02-28T05:26:47;10.20;;;5.80;;
34064;SDS011;20339;49.754;20.158;2024-02-28T05:29:19;9.80;;;6.30;;
34064;SDS011;20339;49.754;20.158;2024-02-28T05:31:50;11.40;;;6.80;;
34064;SDS011;20339;49.754;20.158;2024-02-28T05:34:27;9.30;;;5.30;;
34064;SDS011;20339;49.754;20.158;2024-02-28T05:37:01;11.10;;;5.50;;
34064;SDS011;20339;49.754;20.158;2024-02-28T05:39:32;12.70;;;7.50;;
34064;SDS011;20339;49.754;20.158;2024-02-28T05:42:06;12.70;;;8.40;;
34064;SDS011;20339;49.754;20.158;2024-02-28T05:44:41;11.50;;;7.30;;
34064;SDS011;20339;49.754;20.158;2024-02-28T05:47:15;9.90;;;5.80;;
34064;SDS011;20339;49.754;20.158;2024-02-28T05:49:52;11.10;;;6.20;;
34064;SDS011;20339;49.754;20.158;2024-02-28T05:52:26;9.30;;;6.20;;
34064;SDS011;20339;49.754;20.158;2024-02-28T05:55:00;8.60;;;6.00;;
34064;SDS011;20339;49.754;20.158;2024-02-28T05:57:31;6.60;;;5.20;;
34064;SDS011;20339;49.754;20.158;2024-02-28T06:00:02;7.40;;;4.60;;
34064;SDS011;20339;49.754;20.158;2024-02-28T06:02:39;11.90;;;5.70;;
34064;SDS011;20339;49.754;20.158;2024-02-28T06:05:13;11.20;;;6.00;;
34064;SDS011;20339;49.754;20.158;2024-02-28T06:07:46;8.10;;;5.30;;
34064;SDS011;20339;49.754;20.158;2024-02-28T06:10:20;8.20;;;4.50;;
34064;SDS011;20339;49.754;20.158;2024-02-28T06:12:56;11.30;;;5.50;;
34064;SDS011;20339;49.754;20.158;2024-02-28T06:15:30;10.10;;;5.70;;
34064;SDS011;20339;49.754;20.158;2024-02-28T06:18:01;9.10;;;5.70;;
34064;SDS011;20339;49.754;20.158;2024-02-28T06:20:35;10.90;;;6.50;;
34064;SDS011;20339;49.754;20.158;2024-02-28T06:23:06;10.00;;;5.80;;
34064;SDS011;20339;49.754;20.158;2024-02-28T06:25:37;8.10;;;5.60;;
34064;SDS011;20339;49.754;20.158;2024-02-28T06:28:09;8.80;;;6.60;;
34064;SDS011;20339;49.754;20.158;2024-02-28T06:30:43;11.50;;;6.60;;
34064;SDS011;20339;49.754;20.158;2024-02-28T06:33:14;11.60;;;7.10;;
34064;SDS011;20339;49.754;20.158;2024-02-28T06:35:46;11.00;;;7.70;;
34064;SDS011;20339;49.754;20.158;2024-02-28T06:38:18;10.50;;;6.50;;
34064;SDS011;20339;49.754;20.158;2024-02-28T06:40:53;11.20;;;7.40;;
34064;SDS011;20339;49.754;20.158;2024-02-28T06:43:26;13.90;;;7.30;;
34064;SDS011;20339;49.754;20.158;2024-02-28T06:45:57;11.80;;;7.60;;
34064;SDS011;20339;49.754;20.158;2024-02-28T06:48:31;11.90;;;7.70;;
34064;SDS011;20339;49.754;20.158;2024-02-28T06:51:05;11.70;;;7.70;;
34064;SDS011;20339;49.754;20.158;2024-02-28T06:53:41;10.80;;;6.60;;
34064;SDS011;20339;49.754;20.158;2024-02-28T06:56:14;7.90;;;5.70;;
34064;SDS011;20339;49.754;20.158;2024-02-28T06:58:51;10.50;;;5.70;;
34064;SDS011;20339;49.754;20.158;2024-02-28T07:01:26;9.80;;;6.40;;
34064;SDS011;20339;49.754;20.158;2024-02-28T07:04:01;8.20;;;5.60;;
34064;SDS011;20339;49.754;20.158;2024-02-28T07:06:38;11.60;;;6.20;;
34064;SDS011;20339;49.754;20.158;2024-02-28T07:09:12;11.00;;;7.10;;
34064;SDS011;20339;49.754;20.158;2024-02-28T07:11:59;12.70;;;6.60;;
34064;SDS011;20339;49.754;20.158;2024-02-28T07:14:32;8.80;;;5.70;;
34064;SDS011;20339;49.754;20.158;2024-02-28T07:17:07;9.00;;;6.60;;
34064;SDS011;20339;49.754;20.158;2024-02-28T07:19:44;10.90;;;7.10;;
34064;SDS011;20339;49.754;20.158;2024-02-28T07:22:18;13.40;;;7.10;;
34064;SDS011;20339;49.754;20.158;2024-02-28T07:24:55;10.30;;;6.20;;
34064;SDS011;20339;49.754;20.158;2024-02-28T07:27:26;11.00;;;6.80;;
34064;SDS011;20339;49.754;20.158;2024-02-28T07:29:57;11.40;;;6.50;;
34064;SDS011;20339;49.754;20.158;2024-02-28T07:32:31;10.10;;;7.50;;
34064;SDS011;20339;49.754;20.158;2024-02-28T07:35:03;12.30;;;7.80;;
34064;SDS011;20339;49.754;20.158;2024-02-28T07:37:35;10.90;;;7.70;;
34064;SDS011;20339;49.754;20.158;2024-02-28T07:40:10;15.40;;;7.60;;
34064;SDS011;20339;49.754;20.158;2024-02-28T07:42:49;8.80;;;6.00;;
34064;SDS011;20339;49.754;20.158;2024-02-28T07:45:25;12.40;;;6.20;;
34064;SDS011;20339;49.754;20.158;2024-02-28T07:47:58;11.90;;;7.00;;
34064;SDS011;20339;49.754;20.158;2024-02-28T07:50:33;11.30;;;7.00;;
34064;SDS011;20339;49.754;20.158;2024-02-28T07:53:13;10.10;;;6.70;;
34064;SDS011;20339;49.754;20.158;2024-02-28T07:55:46;10.90;;;7.30;;
34064;SDS011;20339;49.754;20.158;2024-02-28T07:58:18;12.60;;;6.90;;
34064;SDS011;20339;49.754;20.158;2024-02-28T08:00:53;12.90;;;7.10;;
34064;SDS011;20339;49.754;20.158;2024-02-28T08:03:28;10.40;;;7.00;;
34064;SDS011;20339;49.754;20.158;2024-02-28T08:06:03;10.80;;;6.10;;
34064;SDS011;20339;49.754;20.158;2024-02-28T08:08:37;9.90;;;6.40;;
34064;SDS011;20339;49.754;20.158;2024-02-28T08:11:07;9.00;;;6.40;;
34064;SDS011;20339;49.754;20.158;2024-02-28T08:13:39;11.00;;;6.50;;
34064;SDS011;20339;49.754;20.158;2024-02-28T08:16:11;11.40;;;6.50;;
34064;SDS011;20339;49.754;20.158;2024-02-28T08:18:45;10.30;;;6.40;;
34064;SDS011;20339;49.754;20.158;2024-02-28T08:21:24;9.90;;;5.90;;
34064;SDS011;20339;49.754;20.158;2024-02-28T08:23:58;8.20;;;5.30;;
34064;SDS011;20339;49.754;20.158;2024-02-28T08:26:35;9.30;;;5.40;;
34064;SDS011;20339;49.754;20.158;2024-02-28T08:29:12;10.40;;;6.30;;
34064;SDS011;20339;49.754;20.158;2024-02-28T08:31:49;10.30;;;6.30;;
34064;SDS011;20339;49.754;20.158;2024-02-28T08:34:27;8.90;;;5.10;;
34064;SDS011;20339;49.754;20.158;2024-02-28T08:36:59;10.30;;;6.70;;
34064;SDS011;20339;49.754;20.158;2024-02-28T08:39:35;9.90;;;6.20;;
34064;SDS011;20339;49.754;20.158;2024-02-28T08:42:06;11.90;;;6.90;;
34064;SDS011;20339;49.754;20.158;2024-02-28T08:44:40;11.30;;;6.90;;
34064;SDS011;20339;49.754;20.158;2024-02-28T08:47:16;11.50;;;6.90;;
34064;SDS011;20339;49.754;20.158;2024-02-28T08:49:51;13.00;;;7.60;;
34064;SDS011;20339;49.754;20.158;2024-02-28T08:52:25;10.70;;;7.10;;
34064;SDS011;20339;49.754;20.158;2024-02-28T08:54:58;11.70;;;8.10;;
34064;SDS011;20339;49.754;20.158;2024-02-28T08:57:34;15.10;;;10.00;;
34064;SDS011;20339;49.754;20.158;2024-02-28T09:00:08;13.40;;;10.00;;
34064;SDS011;20339;49.754;20.158;2024-02-28T09:02:46;16.20;;;10.50;;
34064;SDS011;20339;49.754;20.158;2024-02-28T09:05:17;12.20;;;8.40;;
34064;SDS011;20339;49.754;20.158;2024-02-28T09:07:48;13.90;;;8.10;;
34064;SDS011;20339;49.754;20.158;2024-02-28T09:10:23;13.20;;;8.30;;
34064;SDS011;20339;49.754;20.158;2024-02-28T09:12:57;11.70;;;8.40;;
34064;SDS011;20339;49.754;20.158;2024-02-28T09:15:30;13.30;;;7.70;;
34064;SDS011;20339;49.754;20.158;2024-02-28T09:18:04;11.30;;;7.80;;
34064;SDS011;20339;49.754;20.158;2024-02-28T09:20:37;10.20;;;6.60;;
34064;SDS011;20339;49.754;20.158;2024-02-28T09:23:13;12.30;;;7.70;;
34064;SDS011;20339;49.754;20.158;2024-02-28T09:25:45;10.40;;;7.80;;
34064;SDS011;20339;49.754;20.158;2024-02-28T09:28:16;11.10;;;7.00;;
34064;SDS011;20339;49.754;20.158;2024-02-28T09:30:53;11.80;;;7.00;;
34064;SDS011;20339;49.754;20.158;2024-02-28T09:33:26;10.00;;;6.10;;
34064;SDS011;20339;49.754;20.158;2024-02-28T09:36:03;11.60;;;6.20;;
34064;SDS011;20339;49.754;20.158;2024-02-28T09:38:42;9.20;;;5.80;;
34064;SDS011;20339;49.754;20.158;2024-02-28T09:41:15;8.80;;;5.70;;
34064;SDS011;20339;49.754;20.158;2024-02-28T09:43:48;10.10;;;6.70;;
34064;SDS011;20339;49.754;20.158;2024-02-28T09:46:20;10.90;;;6.60;;
34064;SDS011;20339;49.754;20.158;2024-02-28T09:48:52;10.80;;;7.00;;
34064;SDS011;20339;49.754;20.158;2024-02-28T09:51:26;10.10;;;6.90;;
34064;SDS011;20339;49.754;20.158;2024-02-28T09:54:05;10.50;;;6.40;;
34064;SDS011;20339;49.754;20.158;2024-02-28T09:56:38;9.70;;;6.20;;
34064;SDS011;20339;49.754;20.158;2024-02-28T09:59:11;10.30;;;6.60;;
34064;SDS011;20339;49.754;20.158;2024-02-28T10:01:47;9.40;;;7.00;;
34064;SDS011;20339;49.754;20.158;2024-02-28T10:04:28;11.00;;;6.50;;
34064;SDS011;20339;49.754;20.158;2024-02-28T10:07:11;10.60;;;6.60;;
34064;SDS011;20339;49.754;20.158;2024-02-28T10:09:45;9.90;;;6.40;;
34064;SDS011;20339;49.754;20.158;2024-02-28T10:12:19;12.20;;;7.00;;
34064;SDS011;20339;49.754;20.158;2024-02-28T10:14:56;8.80;;;5.70;;
34064;SDS011;20339;49.754;20.158;2024-02-28T10:17:31;10.90;;;7.40;;
34064;SDS011;20339;49.754;20.158;2024-02-28T10:20:06;11.10;;;6.70;;
34064;SDS011;20339;49.754;20.158;2024-02-28T10:22:47;9.50;;;7.00;;
34064;SDS011;20339;49.754;20.158;2024-02-28T10:25:22;12.30;;;7.40;;
34064;SDS011;20339;49.754;20.158;2024-02-28T10:27:58;10.30;;;6.30;;
34064;SDS011;20339;49.754;20.158;2024-02-28T10:30:40;13.40;;;7.60;;
34064;SDS011;20339;49.754;20.158;2024-02-28T10:33:13;11.40;;;7.10;;
34064;SDS011;20339;49.754;20.158;2024-02-28T10:35:47;10.60;;;7.20;;
34064;SDS011;20339;49.754;20.158;2024-02-28T10:38:21;9.90;;;6.00;;
34064;SDS011;20339;49.754;20.158;2024-02-28T10:40:57;10.70;;;6.90;;
34064;SDS011;20339;49.754;20.158;2024-02-28T10:43:32;8.50;;;6.20;;
34064;SDS011;20339;49.754;20.158;2024-02-28T10:46:12;11.70;;;7.30;;
34064;SDS011;20339;49.754;20.158;2024-02-28T10:48:51;12.00;;;8.20;;
34064;SDS011;20339;49.754;20.158;2024-02-28T10:51:25;12.30;;;8.50;;
34064;SDS011;20339;49.754;20.158;2024-02-28T10:54:02;13.10;;;8.30;;
34064;SDS011;20339;49.754;20.158;2024-02-28T10:56:42;9.90;;;6.80;;
34064;SDS011;20339;49.754;20.158;2024-02-28T10:59:19;11.70;;;7.80;;
34064;SDS011;20339;49.754;20.158;2024-02-28T11:01:57;10.70;;;8.00;;
34064;SDS011;20339;49.754;20.158;2024-02-28T11:04:31;11.70;;;7.60;;
34064;SDS011;20339;49.754;20.158;2024-02-28T11:07:05;12.60;;;6.60;;
34064;SDS011;20339;49.754;20.158;2024-02-28T11:09:47;12.80;;;7.10;;
34064;SDS011;20339;49.754;20.158;2024-02-28T11:12:26;16.40;;;9.40;;
34064;SDS011;20339;49.754;20.158;2024-02-28T11:14:59;15.40;;;8.60;;
34064;SDS011;20339;49.754;20.158;2024-02-28T11:17:34;11.80;;;6.90;;
34064;SDS011;20339;49.754;20.158;2024-02-28T11:20:17;11.40;;;7.40;;
34064;SDS011;20339;49.754;20.158;2024-02-28T11:22:59;11.20;;;7.00;;
34064;SDS011;20339;49.754;20.158;2024-02-28T11:25:31;12.90;;;7.60;;
34064;SDS011;20339;49.754;20.158;2024-02-28T11:28:02;11.00;;;8.00;;
34064;SDS011;20339;49.754;20.158;2024-02-28T11:30:38;11.30;;;7.90;;
34064;SDS011;20339;49.754;20.158;2024-02-28T11:33:18;12.90;;;7.30;;
34064;SDS011;20339;49.754;20.158;2024-02-28T11:35:55;12.10;;;8.10;;
34064;SDS011;20339;49.754;20.158;2024-02-28T11:38:26;11.60;;;8.30;;
34064;SDS011;20339;49.754;20.158;2024-02-28T11:40:58;15.70;;;9.70;;
34064;SDS011;20339;49.754;20.158;2024-02-28T11:43:32;14.60;;;9.50;;
34064;SDS011;20339;49.754;20.158;2024-02-28T11:46:08;11.60;;;8.40;;
34064;SDS011;20339;49.754;20.158;2024-02-28T11:48:40;13.30;;;8.60;;
34064;SDS011;20339;49.754;20.158;2024-02-28T11:51:14;15.20;;;10.20;;
34064;SDS011;20339;49.754;20.158;2024-02-28T11:53:48;13.00;;;8.80;;
34064;SDS011;20339;49.754;20.158;2024-02-28T11:56:22;12.80;;;8.90;;
34064;SDS011;20339;49.754;20.158;2024-02-28T11:58:53;13.50;;;7.90;;
34064;SDS011;20339;49.754;20.158;2024-02-28T12:01:36;11.20;;;8.00;;
34064;SDS011;20339;49.754;20.158;2024-02-28T12:04:12;13.40;;;8.40;;
34064;SDS011;20339;49.754;20.158;2024-02-28T12:06:47;13.90;;;7.70;;
34064;SDS011;20339;49.754;20.158;2024-02-28T12:09:23;12.20;;;8.00;;
34064;SDS011;20339;49.754;20.158;2024-02-28T12:11:59;11.50;;;7.80;;
34064;SDS011;20339;49.754;20.158;2024-02-28T12:14:35;11.30;;;7.70;;
34064;SDS011;20339;49.754;20.158;2024-02-28T12:17:10;13.60;;;8.40;;
34064;SDS011;20339;49.754;20.158;2024-02-28T12:19:45;13.40;;;8.80;;
34064;SDS011;20339;49.754;20.158;2024-02-28T12:22:19;12.90;;;8.00;;
34064;SDS011;20339;49.754;20.158;2024-02-28T12:24:51;11.80;;;8.20;;
34064;SDS011;20339;49.754;20.158;2024-02-28T12:27:26;13.40;;;8.70;;
34064;SDS011;20339;49.754;20.158;2024-02-28T12:30:01;12.60;;;8.00;;
34064;SDS011;20339;49.754;20.158;2024-02-28T12:32:42;14.70;;;9.00;;
34064;SDS011;20339;49.754;20.158;2024-02-28T12:35:21;12.20;;;7.90;;
34064;SDS011;20339;49.754;20.158;2024-02-28T12:37:53;13.50;;;8.10;;
34064;SDS011;20339;49.754;20.158;2024-02-28T12:40:29;14.90;;;9.60;;
34064;SDS011;20339;49.754;20.158;2024-02-28T12:43:00;12.40;;;8.00;;
34064;SDS011;20339;49.754;20.158;2024-02-28T12:45:35;15.90;;;8.50;;
34064;SDS011;20339;49.754;20.158;2024-02-28T12:48:09;12.00;;;8.40;;
34064;SDS011;20339;49.754;20.158;2024-02-28T12:50:43;14.40;;;8.40;;
34064;SDS011;20339;49.754;20.158;2024-02-28T12:53:17;13.40;;;8.90;;
34064;SDS011;20339;49.754;20.158;2024-02-28T12:55:54;16.30;;;10.50;;
34064;SDS011;20339;49.754;20.158;2024-02-28T12:58:25;14.00;;;8.90;;
34064;SDS011;20339;49.754;20.158;2024-02-28T13:01:04;13.20;;;9.80;;
34064;SDS011;20339;49.754;20.158;2024-02-28T13:03:40;14.60;;;10.30;;
34064;SDS011;20339;49.754;20.158;2024-02-28T13:06:19;13.30;;;9.40;;
34064;SDS011;20339;49.754;20.158;2024-02-28T13:08:57;15.70;;;10.10;;
34064;SDS011;20339;49.754;20.158;2024-02-28T13:11:31;16.30;;;10.30;;
34064;SDS011;20339;49.754;20.158;2024-02-28T13:14:07;13.40;;;9.50;;
34064;SDS011;20339;49.754;20.158;2024-02-28T13:16:42;13.40;;;9.10;;
34064;SDS011;20339;49.754;20.158;2024-02-28T13:19:26;15.60;;;9.80;;
34064;SDS011;20339;49.754;20.158;2024-02-28T13:22:02;16.30;;;10.00;;
34064;SDS011;20339;49.754;20.158;2024-02-28T13:24:37;17.40;;;9.20;;
34064;SDS011;20339;49.754;20.158;2024-02-28T13:27:13;14.00;;;8.70;;
34064;SDS011;20339;49.754;20.158;2024-02-28T13:29:48;14.60;;;8.60;;
34064;SDS011;20339;49.754;20.158;2024-02-28T13:32:22;12.60;;;9.50;;
34064;SDS011;20339;49.754;20.158;2024-02-28T13:34:57;13.70;;;7.90;;
34064;SDS011;20339;49.754;20.158;2024-02-28T13:37:33;14.00;;;9.00;;
34064;SDS011;20339;49.754;20.158;2024-02-28T13:40:09;14.20;;;8.60;;
34064;SDS011;20339;49.754;20.158;2024-02-28T13:42:43;13.50;;;8.20;;
34064;SDS011;20339;49.754;20.158;2024-02-28T13:45:18;14.80;;;9.20;;
34064;SDS011;20339;49.754;20.158;2024-02-28T13:47:52;14.50;;;8.90;;
34064;SDS011;20339;49.754;20.158;2024-02-28T13:50:26;24.30;;;18.00;;
34064;SDS011;20339;49.754;20.158;2024-02-28T13:53:01;19.50;;;14.30;;
34064;SDS011;20339;49.754;20.158;2024-02-28T13:55:35;28.60;;;20.50;;
34064;SDS011;20339;49.754;20.158;2024-02-28T13:58:09;22.70;;;17.20;;
34064;SDS011;20339;49.754;20.158;2024-02-28T14:00:49;14.80;;;10.20;;
34064;SDS011;20339;49.754;20.158;2024-02-28T14:03:20;19.70;;;15.70;;
34064;SDS011;20339;49.754;20.158;2024-02-28T14:05:55;28.10;;;19.70;;
34064;SDS011;20339;49.754;20.158;2024-02-28T14:08:28;19.50;;;13.30;;
34064;SDS011;20339;49.754;20.158;2024-02-28T14:11:05;19.20;;;12.90;;
34064;SDS011;20339;49.754;20.158;2024-02-28T14:13:37;71.30;;;50.90;;
34064;SDS011;20339;49.754;20.158;2024-02-28T14:16:14;45.40;;;31.60;;
34064;SDS011;20339;49.754;20.158;2024-02-28T14:18:48;111.50;;;71.40;;
34064;SDS011;20339;49.754;20.158;2024-02-28T14:21:23;28.00;;;20.50;;
34064;SDS011;20339;49.754;20.158;2024-02-28T14:23:56;31.40;;;19.90;;
34064;SDS011;20339;49.754;20.158;2024-02-28T14:26:28;35.60;;;23.60;;
34064;SDS011;20339;49.754;20.158;2024-02-28T14:29:03;38.40;;;24.60;;
34064;SDS011;20339;49.754;20.158;2024-02-28T14:31:37;17.80;;;12.40;;
34064;SDS011;20339;49.754;20.158;2024-02-28T14:34:11;52.60;;;30.70;;
34064;SDS011;20339;49.754;20.158;2024-02-28T14:36:42;30.00;;;17.60;;
34064;SDS011;20339;49.754;20.158;2024-02-28T14:39:16;51.60;;;33.30;;
34064;SDS011;20339;49.754;20.158;2024-02-28T14:41:54;19.10;;;14.40;;
34064;SDS011;20339;49.754;20.158;2024-02-28T14:44:37;15.50;;;10.30;;
34064;SDS011;20339;49.754;20.158;2024-02-28T14:47:14;28.10;;;15.10;;
34064;SDS011;20339;49.754;20.158;2024-02-28T14:49:58;30.80;;;17.70;;
34064;SDS011;20339;49.754;20.158;2024-02-28T14:52:34;22.90;;;13.50;;
34064;SDS011;20339;49.754;20.158;2024-02-28T14:55:10;20.80;;;11.50;;
34064;SDS011;20339;49.754;20.158;2024-02-28T14:57:46;19.80;;;11.60;;
34064;SDS011;20339;49.754;20.158;2024-02-28T15:00:23;21.00;;;11.80;;
34064;SDS011;20339;49.754;20.158;2024-02-28T15:02:58;39.80;;;21.60;;
34064;SDS011;20339;49.754;20.158;2024-02-28T15:05:33;35.80;;;19.30;;
34064;SDS011;20339;49.754;20.158;2024-02-28T15:08:06;34.40;;;19.50;;